Terminal Aerodrome Forecast
Issued by NWS

Home | Current Version | Previous Version | Text Only | Print | Product List | Glossary On
Versions: 1 2 3 4 5 6 7 8 9 10 11 12
000
FTUS46 KMTR 241726
TAFSNS
TAF
KSNS 241726Z 2418/2518 32006KT P6SM SCT200
     FM241900 28010KT P6SM SCT200
     FM250400 31005KT P6SM SCT100 BKN150
     FM250700 12006KT P6SM SCT140 BKN200=

USA.gov is the U.S. government's official web portal to all federal, state and local government web resources and services.